sensor_id;sensor_type;location;lat;lon;timestamp;P1;durP1;ratioP1;P2;durP2;ratioP2
71320;SDS011;59118;54.322;18.576;2022-07-21T00:01:57;11.30;;;5.55;;
71320;SDS011;59118;54.322;18.576;2022-07-21T00:04:24;11.67;;;5.00;;
71320;SDS011;59118;54.322;18.576;2022-07-21T00:06:51;9.15;;;5.22;;
71320;SDS011;59118;54.322;18.576;2022-07-21T00:09:17;9.65;;;4.90;;
71320;SDS011;59118;54.322;18.576;2022-07-21T00:11:44;10.95;;;5.75;;
71320;SDS011;59118;54.322;18.576;2022-07-21T00:14:11;11.13;;;5.88;;
71320;SDS011;59118;54.322;18.576;2022-07-21T00:16:38;9.03;;;5.00;;
71320;SDS011;59118;54.322;18.576;2022-07-21T00:19:06;10.30;;;5.03;;
71320;SDS011;59118;54.322;18.576;2022-07-21T00:21:33;8.77;;;5.10;;
71320;SDS011;59118;54.322;18.576;2022-07-21T00:24:01;9.10;;;4.57;;
71320;SDS011;59118;54.322;18.576;2022-07-21T00:26:27;9.75;;;5.45;;
71320;SDS011;59118;54.322;18.576;2022-07-21T00:28:54;8.87;;;5.20;;
71320;SDS011;59118;54.322;18.576;2022-07-21T00:31:21;8.85;;;4.90;;
71320;SDS011;59118;54.322;18.576;2022-07-21T00:33:48;9.73;;;5.18;;
71320;SDS011;59118;54.322;18.576;2022-07-21T00:36:19;11.20;;;5.57;;
71320;SDS011;59118;54.322;18.576;2022-07-21T00:38:46;9.70;;;5.38;;
71320;SDS011;59118;54.322;18.576;2022-07-21T00:41:13;9.13;;;5.40;;
71320;SDS011;59118;54.322;18.576;2022-07-21T00:43:40;10.00;;;5.47;;
71320;SDS011;59118;54.322;18.576;2022-07-21T00:46:07;12.73;;;5.50;;
71320;SDS011;59118;54.322;18.576;2022-07-21T00:48:35;10.65;;;5.47;;
71320;SDS011;59118;54.322;18.576;2022-07-21T00:51:03;11.45;;;5.80;;
71320;SDS011;59118;54.322;18.576;2022-07-21T00:53:29;10.53;;;5.77;;
71320;SDS011;59118;54.322;18.576;2022-07-21T00:55:56;10.20;;;5.30;;
71320;SDS011;59118;54.322;18.576;2022-07-21T00:58:24;10.75;;;5.57;;
71320;SDS011;59118;54.322;18.576;2022-07-21T01:00:51;9.65;;;5.32;;
71320;SDS011;59118;54.322;18.576;2022-07-21T01:03:17;9.57;;;4.97;;
71320;SDS011;59118;54.322;18.576;2022-07-21T01:05:44;11.03;;;5.83;;
71320;SDS011;59118;54.322;18.576;2022-07-21T01:08:11;11.60;;;5.53;;
71320;SDS011;59118;54.322;18.576;2022-07-21T01:10:39;9.60;;;6.00;;
71320;SDS011;59118;54.322;18.576;2022-07-21T01:13:07;10.52;;;5.65;;
71320;SDS011;59118;54.322;18.576;2022-07-21T01:15:34;11.35;;;6.07;;
71320;SDS011;59118;54.322;18.576;2022-07-21T01:18:03;12.80;;;6.10;;
71320;SDS011;59118;54.322;18.576;2022-07-21T01:20:32;12.20;;;5.57;;
71320;SDS011;59118;54.322;18.576;2022-07-21T01:23:00;10.07;;;5.70;;
71320;SDS011;59118;54.322;18.576;2022-07-21T01:25:30;10.80;;;5.20;;
71320;SDS011;59118;54.322;18.576;2022-07-21T01:27:56;9.50;;;5.30;;
71320;SDS011;59118;54.322;18.576;2022-07-21T01:30:23;10.00;;;5.47;;
71320;SDS011;59118;54.322;18.576;2022-07-21T01:32:50;12.10;;;5.70;;
71320;SDS011;59118;54.322;18.576;2022-07-21T01:35:17;11.00;;;5.07;;
71320;SDS011;59118;54.322;18.576;2022-07-21T01:37:45;10.75;;;5.40;;
71320;SDS011;59118;54.322;18.576;2022-07-21T01:40:13;12.60;;;5.57;;
71320;SDS011;59118;54.322;18.576;2022-07-21T01:42:58;11.27;;;5.70;;
71320;SDS011;59118;54.322;18.576;2022-07-21T01:45:26;10.60;;;6.10;;
71320;SDS011;59118;54.322;18.576;2022-07-21T01:47:52;10.35;;;5.63;;
71320;SDS011;59118;54.322;18.576;2022-07-21T01:50:19;9.23;;;5.35;;
71320;SDS011;59118;54.322;18.576;2022-07-21T01:52:47;9.80;;;5.47;;
71320;SDS011;59118;54.322;18.576;2022-07-21T01:55:13;10.30;;;5.20;;
71320;SDS011;59118;54.322;18.576;2022-07-21T01:57:40;11.68;;;5.45;;
71320;SDS011;59118;54.322;18.576;2022-07-21T02:00:07;11.50;;;5.50;;
71320;SDS011;59118;54.322;18.576;2022-07-21T02:02:34;10.65;;;5.72;;
71320;SDS011;59118;54.322;18.576;2022-07-21T02:05:00;9.23;;;5.63;;
71320;SDS011;59118;54.322;18.576;2022-07-21T02:07:27;9.03;;;5.80;;
71320;SDS011;59118;54.322;18.576;2022-07-21T02:09:53;10.55;;;5.40;;
71320;SDS011;59118;54.322;18.576;2022-07-21T02:12:20;9.57;;;5.60;;
71320;SDS011;59118;54.322;18.576;2022-07-21T02:14:47;10.82;;;5.82;;
71320;SDS011;59118;54.322;18.576;2022-07-21T02:17:13;11.98;;;5.50;;
71320;SDS011;59118;54.322;18.576;2022-07-21T02:19:40;9.40;;;5.47;;
71320;SDS011;59118;54.322;18.576;2022-07-21T02:22:06;10.70;;;6.10;;
71320;SDS011;59118;54.322;18.576;2022-07-21T02:24:33;12.50;;;5.85;;
71320;SDS011;59118;54.322;18.576;2022-07-21T02:27:01;10.60;;;5.97;;
71320;SDS011;59118;54.322;18.576;2022-07-21T02:29:28;10.38;;;5.47;;
71320;SDS011;59118;54.322;18.576;2022-07-21T02:31:54;9.03;;;5.37;;
71320;SDS011;59118;54.322;18.576;2022-07-21T02:34:21;9.95;;;5.03;;
71320;SDS011;59118;54.322;18.576;2022-07-21T02:36:47;10.93;;;5.65;;
71320;SDS011;59118;54.322;18.576;2022-07-21T02:39:14;9.15;;;5.65;;
71320;SDS011;59118;54.322;18.576;2022-07-21T02:41:42;9.85;;;5.43;;
71320;SDS011;59118;54.322;18.576;2022-07-21T02:44:08;10.30;;;6.10;;
71320;SDS011;59118;54.322;18.576;2022-07-21T02:46:35;9.95;;;5.43;;
71320;SDS011;59118;54.322;18.576;2022-07-21T02:49:01;11.40;;;5.97;;
71320;SDS011;59118;54.322;18.576;2022-07-21T02:51:28;10.07;;;6.00;;
71320;SDS011;59118;54.322;18.576;2022-07-21T02:53:54;11.82;;;6.20;;
71320;SDS011;59118;54.322;18.576;2022-07-21T02:56:21;11.37;;;6.07;;
71320;SDS011;59118;54.322;18.576;2022-07-21T02:58:47;9.68;;;5.93;;
71320;SDS011;59118;54.322;18.576;2022-07-21T03:01:14;11.77;;;6.38;;
71320;SDS011;59118;54.322;18.576;2022-07-21T03:03:41;13.90;;;6.00;;
71320;SDS011;59118;54.322;18.576;2022-07-21T03:06:08;10.50;;;6.30;;
71320;SDS011;59118;54.322;18.576;2022-07-21T03:08:35;9.27;;;5.63;;
71320;SDS011;59118;54.322;18.576;2022-07-21T03:11:01;10.77;;;6.28;;
71320;SDS011;59118;54.322;18.576;2022-07-21T03:13:29;12.00;;;6.95;;
71320;SDS011;59118;54.322;18.576;2022-07-21T03:15:55;12.15;;;6.47;;
71320;SDS011;59118;54.322;18.576;2022-07-21T03:18:22;12.23;;;6.60;;
71320;SDS011;59118;54.322;18.576;2022-07-21T03:20:49;14.93;;;6.50;;
71320;SDS011;59118;54.322;18.576;2022-07-21T03:23:15;12.10;;;6.85;;
71320;SDS011;59118;54.322;18.576;2022-07-21T03:25:42;10.95;;;6.72;;
71320;SDS011;59118;54.322;18.576;2022-07-21T03:28:09;13.90;;;6.70;;
71320;SDS011;59118;54.322;18.576;2022-07-21T03:30:35;11.45;;;7.00;;
71320;SDS011;59118;54.322;18.576;2022-07-21T03:33:03;15.57;;;6.77;;
71320;SDS011;59118;54.322;18.576;2022-07-21T03:35:30;12.77;;;6.53;;
71320;SDS011;59118;54.322;18.576;2022-07-21T03:37:57;10.77;;;7.10;;
71320;SDS011;59118;54.322;18.576;2022-07-21T03:40:26;11.38;;;6.97;;
71320;SDS011;59118;54.322;18.576;2022-07-21T03:42:55;11.18;;;6.30;;
71320;SDS011;59118;54.322;18.576;2022-07-21T03:45:23;12.97;;;6.70;;
71320;SDS011;59118;54.322;18.576;2022-07-21T03:47:51;11.57;;;6.35;;
71320;SDS011;59118;54.322;18.576;2022-07-21T03:50:18;13.20;;;7.03;;
71320;SDS011;59118;54.322;18.576;2022-07-21T03:52:45;10.77;;;6.30;;
71320;SDS011;59118;54.322;18.576;2022-07-21T03:55:12;12.43;;;6.10;;
71320;SDS011;59118;54.322;18.576;2022-07-21T03:57:46;14.00;;;6.67;;
71320;SDS011;59118;54.322;18.576;2022-07-21T04:00:21;11.98;;;6.28;;
71320;SDS011;59118;54.322;18.576;2022-07-21T04:02:52;11.90;;;6.38;;
71320;SDS011;59118;54.322;18.576;2022-07-21T04:05:18;12.93;;;6.82;;
71320;SDS011;59118;54.322;18.576;2022-07-21T04:07:48;10.82;;;6.30;;
71320;SDS011;59118;54.322;18.576;2022-07-21T04:10:16;11.03;;;6.03;;
71320;SDS011;59118;54.322;18.576;2022-07-21T04:12:44;11.98;;;6.57;;
71320;SDS011;59118;54.322;18.576;2022-07-21T04:15:11;12.85;;;6.60;;
71320;SDS011;59118;54.322;18.576;2022-07-21T04:17:38;12.50;;;6.43;;
71320;SDS011;59118;54.322;18.576;2022-07-21T04:20:06;11.02;;;6.20;;
71320;SDS011;59118;54.322;18.576;2022-07-21T04:22:34;12.67;;;6.43;;
71320;SDS011;59118;54.322;18.576;2022-07-21T04:25:01;10.45;;;5.82;;
71320;SDS011;59118;54.322;18.576;2022-07-21T04:27:30;13.05;;;6.70;;
71320;SDS011;59118;54.322;18.576;2022-07-21T04:29:56;11.63;;;6.38;;
71320;SDS011;59118;54.322;18.576;2022-07-21T04:32:23;30.58;;;10.48;;
71320;SDS011;59118;54.322;18.576;2022-07-21T04:34:50;13.43;;;6.60;;
71320;SDS011;59118;54.322;18.576;2022-07-21T04:37:16;14.90;;;6.50;;
71320;SDS011;59118;54.322;18.576;2022-07-21T04:39:44;16.17;;;5.95;;
71320;SDS011;59118;54.322;18.576;2022-07-21T04:42:17;11.75;;;6.18;;
71320;SDS011;59118;54.322;18.576;2022-07-21T04:44:45;15.77;;;6.75;;
71320;SDS011;59118;54.322;18.576;2022-07-21T04:47:12;10.80;;;6.60;;
71320;SDS011;59118;54.322;18.576;2022-07-21T04:49:38;14.30;;;6.72;;
71320;SDS011;59118;54.322;18.576;2022-07-21T04:52:05;14.43;;;7.20;;
71320;SDS011;59118;54.322;18.576;2022-07-21T04:54:31;18.08;;;6.93;;
71320;SDS011;59118;54.322;18.576;2022-07-21T04:56:59;12.98;;;6.78;;
71320;SDS011;59118;54.322;18.576;2022-07-21T04:59:29;15.10;;;5.97;;
71320;SDS011;59118;54.322;18.576;2022-07-21T05:01:56;11.57;;;6.60;;
71320;SDS011;59118;54.322;18.576;2022-07-21T05:04:23;9.45;;;5.90;;
71320;SDS011;59118;54.322;18.576;2022-07-21T05:06:50;10.77;;;6.30;;
71320;SDS011;59118;54.322;18.576;2022-07-21T05:09:16;11.65;;;6.18;;
71320;SDS011;59118;54.322;18.576;2022-07-21T05:11:43;12.63;;;5.43;;
71320;SDS011;59118;54.322;18.576;2022-07-21T05:14:09;11.88;;;6.80;;
71320;SDS011;59118;54.322;18.576;2022-07-21T05:16:40;16.10;;;6.57;;
71320;SDS011;59118;54.322;18.576;2022-07-21T05:19:07;11.35;;;6.28;;
71320;SDS011;59118;54.322;18.576;2022-07-21T05:21:34;10.07;;;6.07;;
71320;SDS011;59118;54.322;18.576;2022-07-21T05:24:00;11.20;;;6.03;;
71320;SDS011;59118;54.322;18.576;2022-07-21T05:26:27;11.48;;;5.68;;
71320;SDS011;59118;54.322;18.576;2022-07-21T05:28:53;16.17;;;5.88;;
71320;SDS011;59118;54.322;18.576;2022-07-21T05:31:21;12.10;;;5.60;;
71320;SDS011;59118;54.322;18.576;2022-07-21T05:33:47;12.25;;;5.53;;
71320;SDS011;59118;54.322;18.576;2022-07-21T05:36:14;10.60;;;5.30;;
71320;SDS011;59118;54.322;18.576;2022-07-21T05:38:40;9.70;;;5.35;;
71320;SDS011;59118;54.322;18.576;2022-07-21T05:41:07;12.02;;;5.05;;
71320;SDS011;59118;54.322;18.576;2022-07-21T05:43:33;12.63;;;5.32;;
71320;SDS011;59118;54.322;18.576;2022-07-21T05:46:00;9.32;;;5.15;;
71320;SDS011;59118;54.322;18.576;2022-07-21T05:48:27;13.10;;;5.20;;
71320;SDS011;59118;54.322;18.576;2022-07-21T05:50:54;9.55;;;4.75;;
71320;SDS011;59118;54.322;18.576;2022-07-21T05:53:20;12.43;;;4.80;;
71320;SDS011;59118;54.322;18.576;2022-07-21T05:55:48;9.75;;;5.28;;
71320;SDS011;59118;54.322;18.576;2022-07-21T05:58:15;10.32;;;5.22;;
71320;SDS011;59118;54.322;18.576;2022-07-21T06:00:46;12.00;;;4.67;;
71320;SDS011;59118;54.322;18.576;2022-07-21T06:03:34;10.68;;;4.80;;
71320;SDS011;59118;54.322;18.576;2022-07-21T06:06:04;13.43;;;4.68;;
71320;SDS011;59118;54.322;18.576;2022-07-21T06:08:31;12.10;;;5.00;;
71320;SDS011;59118;54.322;18.576;2022-07-21T06:10:58;11.63;;;4.97;;
71320;SDS011;59118;54.322;18.576;2022-07-21T06:13:24;8.97;;;4.60;;
71320;SDS011;59118;54.322;18.576;2022-07-21T06:15:51;9.25;;;4.47;;
71320;SDS011;59118;54.322;18.576;2022-07-21T06:18:29;10.40;;;4.72;;
71320;SDS011;59118;54.322;18.576;2022-07-21T06:20:56;11.93;;;4.75;;
71320;SDS011;59118;54.322;18.576;2022-07-21T06:23:22;10.02;;;4.57;;
71320;SDS011;59118;54.322;18.576;2022-07-21T06:25:50;10.87;;;4.83;;
71320;SDS011;59118;54.322;18.576;2022-07-21T06:28:17;9.75;;;4.60;;
71320;SDS011;59118;54.322;18.576;2022-07-21T06:30:44;8.23;;;4.57;;
71320;SDS011;59118;54.322;18.576;2022-07-21T06:33:12;12.05;;;4.88;;
71320;SDS011;59118;54.322;18.576;2022-07-21T06:35:38;14.18;;;4.60;;
71320;SDS011;59118;54.322;18.576;2022-07-21T06:38:05;10.23;;;5.00;;
71320;SDS011;59118;54.322;18.576;2022-07-21T06:40:39;11.25;;;5.10;;
71320;SDS011;59118;54.322;18.576;2022-07-21T06:43:09;10.65;;;4.35;;
71320;SDS011;59118;54.322;18.576;2022-07-21T06:45:54;13.13;;;5.03;;
71320;SDS011;59118;54.322;18.576;2022-07-21T06:48:21;9.60;;;5.00;;
71320;SDS011;59118;54.322;18.576;2022-07-21T06:50:51;13.63;;;4.50;;
71320;SDS011;59118;54.322;18.576;2022-07-21T06:53:19;10.63;;;5.18;;
71320;SDS011;59118;54.322;18.576;2022-07-21T06:56:35;12.13;;;5.00;;
71320;SDS011;59118;54.322;18.576;2022-07-21T06:59:51;9.55;;;4.88;;
71320;SDS011;59118;54.322;18.576;2022-07-21T07:02:20;13.70;;;5.22;;
71320;SDS011;59118;54.322;18.576;2022-07-21T07:04:50;10.00;;;4.57;;
71320;SDS011;59118;54.322;18.576;2022-07-21T07:07:17;12.05;;;4.78;;
71320;SDS011;59118;54.322;18.576;2022-07-21T07:09:47;9.73;;;5.20;;
71320;SDS011;59118;54.322;18.576;2022-07-21T07:12:13;9.45;;;4.75;;
71320;SDS011;59118;54.322;18.576;2022-07-21T07:15:00;12.32;;;5.45;;
71320;SDS011;59118;54.322;18.576;2022-07-21T07:17:29;10.17;;;4.90;;
71320;SDS011;59118;54.322;18.576;2022-07-21T07:19:55;9.95;;;4.82;;
71320;SDS011;59118;54.322;18.576;2022-07-21T07:22:22;9.27;;;5.30;;
71320;SDS011;59118;54.322;18.576;2022-07-21T07:24:52;11.20;;;5.10;;
71320;SDS011;59118;54.322;18.576;2022-07-21T07:27:19;11.75;;;4.75;;
71320;SDS011;59118;54.322;18.576;2022-07-21T07:29:49;9.33;;;4.93;;
71320;SDS011;59118;54.322;18.576;2022-07-21T07:32:16;8.63;;;4.95;;
71320;SDS011;59118;54.322;18.576;2022-07-21T07:34:42;8.93;;;5.00;;
71320;SDS011;59118;54.322;18.576;2022-07-21T07:37:09;7.80;;;5.32;;
71320;SDS011;59118;54.322;18.576;2022-07-21T07:39:35;8.75;;;5.03;;
71320;SDS011;59118;54.322;18.576;2022-07-21T07:42:04;12.23;;;5.13;;
71320;SDS011;59118;54.322;18.576;2022-07-21T07:44:31;10.65;;;5.10;;
71320;SDS011;59118;54.322;18.576;2022-07-21T07:46:58;10.20;;;5.30;;
71320;SDS011;59118;54.322;18.576;2022-07-21T07:49:30;9.77;;;5.05;;
71320;SDS011;59118;54.322;18.576;2022-07-21T07:51:58;10.95;;;5.07;;
71320;SDS011;59118;54.322;18.576;2022-07-21T07:54:25;7.83;;;5.13;;
71320;SDS011;59118;54.322;18.576;2022-07-21T07:56:52;9.18;;;4.63;;
71320;SDS011;59118;54.322;18.576;2022-07-21T07:59:19;8.07;;;4.85;;
71320;SDS011;59118;54.322;18.576;2022-07-21T08:01:46;11.80;;;4.97;;
71320;SDS011;59118;54.322;18.576;2022-07-21T08:04:13;8.95;;;5.05;;
71320;SDS011;59118;54.322;18.576;2022-07-21T08:06:41;9.93;;;5.23;;
71320;SDS011;59118;54.322;18.576;2022-07-21T08:09:10;10.25;;;4.90;;
71320;SDS011;59118;54.322;18.576;2022-07-21T08:11:36;10.43;;;5.07;;
71320;SDS011;59118;54.322;18.576;2022-07-21T08:14:03;7.97;;;4.70;;
71320;SDS011;59118;54.322;18.576;2022-07-21T08:16:30;8.68;;;5.15;;
71320;SDS011;59118;54.322;18.576;2022-07-21T08:18:56;11.73;;;4.57;;
71320;SDS011;59118;54.322;18.576;2022-07-21T08:21:23;10.20;;;5.00;;
71320;SDS011;59118;54.322;18.576;2022-07-21T08:24:16;8.10;;;5.50;;
71320;SDS011;59118;54.322;18.576;2022-07-21T08:26:43;9.85;;;5.30;;
71320;SDS011;59118;54.322;18.576;2022-07-21T08:29:10;10.40;;;5.30;;
71320;SDS011;59118;54.322;18.576;2022-07-21T08:31:37;9.90;;;5.07;;
71320;SDS011;59118;54.322;18.576;2022-07-21T08:34:04;11.80;;;4.97;;
71320;SDS011;59118;54.322;18.576;2022-07-21T08:36:30;8.43;;;5.00;;
71320;SDS011;59118;54.322;18.576;2022-07-21T08:39:00;11.85;;;5.65;;
71320;SDS011;59118;54.322;18.576;2022-07-21T08:41:27;8.27;;;5.10;;
71320;SDS011;59118;54.322;18.576;2022-07-21T08:43:54;9.07;;;5.20;;
71320;SDS011;59118;54.322;18.576;2022-07-21T08:46:21;10.80;;;5.30;;
71320;SDS011;59118;54.322;18.576;2022-07-21T08:48:49;11.35;;;4.82;;
71320;SDS011;59118;54.322;18.576;2022-07-21T08:51:17;8.73;;;4.68;;
71320;SDS011;59118;54.322;18.576;2022-07-21T08:53:44;10.40;;;4.60;;
71320;SDS011;59118;54.322;18.576;2022-07-21T08:56:12;7.47;;;4.67;;
71320;SDS011;59118;54.322;18.576;2022-07-21T08:58:39;6.90;;;4.35;;
71320;SDS011;59118;54.322;18.576;2022-07-21T09:01:06;8.25;;;4.60;;
71320;SDS011;59118;54.322;18.576;2022-07-21T09:03:33;7.40;;;4.45;;
71320;SDS011;59118;54.322;18.576;2022-07-21T09:06:09;8.80;;;4.60;;
71320;SDS011;59118;54.322;18.576;2022-07-21T09:08:47;8.23;;;4.50;;
71320;SDS011;59118;54.322;18.576;2022-07-21T09:11:23;11.40;;;4.82;;
71320;SDS011;59118;54.322;18.576;2022-07-21T09:16:35;9.23;;;5.07;;
71320;SDS011;59118;54.322;18.576;2022-07-21T09:19:02;10.73;;;5.22;;
71320;SDS011;59118;54.322;18.576;2022-07-21T09:21:35;8.53;;;4.90;;
71320;SDS011;59118;54.322;18.576;2022-07-21T09:29:48;8.40;;;4.90;;
71320;SDS011;59118;54.322;18.576;2022-07-21T09:32:21;9.13;;;5.00;;
71320;SDS011;59118;54.322;18.576;2022-07-21T09:35:00;10.40;;;4.80;;
71320;SDS011;59118;54.322;18.576;2022-07-21T09:37:34;12.40;;;4.93;;
71320;SDS011;59118;54.322;18.576;2022-07-21T09:40:04;9.38;;;4.88;;
71320;SDS011;59118;54.322;18.576;2022-07-21T09:42:38;9.38;;;5.30;;
71320;SDS011;59118;54.322;18.576;2022-07-21T09:45:07;8.40;;;4.82;;
71320;SDS011;59118;54.322;18.576;2022-07-21T09:47:35;8.23;;;4.70;;
71320;SDS011;59118;54.322;18.576;2022-07-21T09:50:05;8.05;;;4.80;;
71320;SDS011;59118;54.322;18.576;2022-07-21T09:52:49;11.25;;;5.03;;
71320;SDS011;59118;54.322;18.576;2022-07-21T09:55:20;13.77;;;5.20;;
71320;SDS011;59118;54.322;18.576;2022-07-21T09:57:46;8.10;;;4.75;;
71320;SDS011;59118;54.322;18.576;2022-07-21T10:00:14;8.97;;;4.60;;
71320;SDS011;59118;54.322;18.576;2022-07-21T10:02:46;10.98;;;4.80;;
71320;SDS011;59118;54.322;18.576;2022-07-21T10:05:14;9.77;;;4.88;;
71320;SDS011;59118;54.322;18.576;2022-07-21T10:07:48;9.68;;;4.38;;
71320;SDS011;59118;54.322;18.576;2022-07-21T10:10:32;10.43;;;4.72;;
71320;SDS011;59118;54.322;18.576;2022-07-21T10:13:18;8.60;;;4.70;;
71320;SDS011;59118;54.322;18.576;2022-07-21T10:15:48;9.68;;;4.78;;
71320;SDS011;59118;54.322;18.576;2022-07-21T10:18:15;11.60;;;4.80;;
71320;SDS011;59118;54.322;18.576;2022-07-21T10:20:44;9.25;;;4.60;;
71320;SDS011;59118;54.322;18.576;2022-07-21T10:26:18;12.40;;;4.47;;
71320;SDS011;59118;54.322;18.576;2022-07-21T10:28:44;10.85;;;5.07;;
71320;SDS011;59118;54.322;18.576;2022-07-21T10:31:12;9.82;;;4.65;;
71320;SDS011;59118;54.322;18.576;2022-07-21T10:41:49;8.43;;;5.10;;
71320;SDS011;59118;54.322;18.576;2022-07-21T10:49:44;8.23;;;5.22;;
71320;SDS011;59118;54.322;18.576;2022-07-21T10:55:22;8.63;;;5.05;;
71320;SDS011;59118;54.322;18.576;2022-07-21T11:03:40;10.07;;;4.55;;
71320;SDS011;59118;54.322;18.576;2022-07-21T11:06:21;12.63;;;4.93;;
71320;SDS011;59118;54.322;18.576;2022-07-21T11:11:36;12.60;;;5.00;;
71320;SDS011;59118;54.322;18.576;2022-07-21T11:14:13;8.95;;;4.43;;
71320;SDS011;59118;54.322;18.576;2022-07-21T11:22:03;8.60;;;4.88;;
71320;SDS011;59118;54.322;18.576;2022-07-21T11:24:32;7.80;;;4.80;;
71320;SDS011;59118;54.322;18.576;2022-07-21T11:29:32;11.10;;;4.70;;
71320;SDS011;59118;54.322;18.576;2022-07-21T11:32:00;8.87;;;4.30;;
71320;SDS011;59118;54.322;18.576;2022-07-21T11:34:41;9.60;;;4.40;;
71320;SDS011;59118;54.322;18.576;2022-07-21T11:37:12;12.57;;;5.13;;
71320;SDS011;59118;54.322;18.576;2022-07-21T11:40:00;11.52;;;5.00;;
71320;SDS011;59118;54.322;18.576;2022-07-21T11:42:32;9.23;;;4.50;;
71320;SDS011;59118;54.322;18.576;2022-07-21T11:45:00;9.40;;;4.43;;
71320;SDS011;59118;54.322;18.576;2022-07-21T11:47:33;8.23;;;4.43;;
71320;SDS011;59118;54.322;18.576;2022-07-21T11:50:01;10.77;;;4.75;;
71320;SDS011;59118;54.322;18.576;2022-07-21T11:52:30;10.88;;;4.43;;
71320;SDS011;59118;54.322;18.576;2022-07-21T11:54:58;13.52;;;4.90;;
71320;SDS011;59118;54.322;18.576;2022-07-21T11:57:26;8.97;;;4.53;;
71320;SDS011;59118;54.322;18.576;2022-07-21T11:59:53;8.73;;;4.47;;
71320;SDS011;59118;54.322;18.576;2022-07-21T12:02:29;7.47;;;4.43;;
71320;SDS011;59118;54.322;18.576;2022-07-21T12:05:00;9.25;;;4.53;;
71320;SDS011;59118;54.322;18.576;2022-07-21T12:07:39;10.00;;;4.70;;
71320;SDS011;59118;54.322;18.576;2022-07-21T12:10:09;7.80;;;4.03;;
71320;SDS011;59118;54.322;18.576;2022-07-21T12:12:38;9.65;;;4.40;;
71320;SDS011;59118;54.322;18.576;2022-07-21T12:15:09;9.50;;;4.60;;
71320;SDS011;59118;54.322;18.576;2022-07-21T12:17:58;7.85;;;4.20;;
71320;SDS011;59118;54.322;18.576;2022-07-21T12:20:27;10.93;;;4.97;;
71320;SDS011;59118;54.322;18.576;2022-07-21T12:22:57;12.17;;;4.63;;
71320;SDS011;59118;54.322;18.576;2022-07-21T12:25:32;9.70;;;4.60;;
71320;SDS011;59118;54.322;18.576;2022-07-21T12:28:03;13.85;;;4.78;;
71320;SDS011;59118;54.322;18.576;2022-07-21T12:30:39;14.23;;;4.60;;
71320;SDS011;59118;54.322;18.576;2022-07-21T12:33:09;8.93;;;4.88;;
71320;SDS011;59118;54.322;18.576;2022-07-21T12:35:41;10.40;;;4.60;;
71320;SDS011;59118;54.322;18.576;2022-07-21T12:38:14;8.05;;;4.38;;
71320;SDS011;59118;54.322;18.576;2022-07-21T12:40:46;8.60;;;4.68;;
71320;SDS011;59118;54.322;18.576;2022-07-21T12:43:34;10.05;;;4.35;;
71320;SDS011;59118;54.322;18.576;2022-07-21T12:48:35;8.70;;;4.40;;
71320;SDS011;59118;54.322;18.576;2022-07-21T12:53:50;8.48;;;4.88;;
71320;SDS011;59118;54.322;18.576;2022-07-21T12:56:20;9.43;;;4.65;;
71320;SDS011;59118;54.322;18.576;2022-07-21T12:58:50;8.45;;;4.40;;
71320;SDS011;59118;54.322;18.576;2022-07-21T13:01:18;9.30;;;4.90;;
71320;SDS011;59118;54.322;18.576;2022-07-21T13:03:49;8.55;;;4.43;;
71320;SDS011;59118;54.322;18.576;2022-07-21T13:06:19;11.90;;;4.95;;
71320;SDS011;59118;54.322;18.576;2022-07-21T13:08:48;10.63;;;4.45;;
71320;SDS011;59118;54.322;18.576;2022-07-21T13:11:16;8.63;;;4.90;;
71320;SDS011;59118;54.322;18.576;2022-07-21T13:13:45;9.60;;;4.53;;
71320;SDS011;59118;54.322;18.576;2022-07-21T13:16:13;8.73;;;4.75;;
71320;SDS011;59118;54.322;18.576;2022-07-21T13:18:39;8.55;;;4.82;;
71320;SDS011;59118;54.322;18.576;2022-07-21T13:21:06;8.38;;;4.40;;
71320;SDS011;59118;54.322;18.576;2022-07-21T13:23:33;8.38;;;4.97;;
71320;SDS011;59118;54.322;18.576;2022-07-21T13:26:00;9.03;;;4.43;;
71320;SDS011;59118;54.322;18.576;2022-07-21T13:28:31;8.90;;;5.05;;
71320;SDS011;59118;54.322;18.576;2022-07-21T13:30:58;11.50;;;4.78;;
71320;SDS011;59118;54.322;18.576;2022-07-21T13:33:27;9.57;;;4.72;;
71320;SDS011;59118;54.322;18.576;2022-07-21T13:35:54;7.28;;;5.00;;
71320;SDS011;59118;54.322;18.576;2022-07-21T13:38:21;8.53;;;4.97;;
71320;SDS011;59118;54.322;18.576;2022-07-21T13:40:47;8.90;;;4.78;;
71320;SDS011;59118;54.322;18.576;2022-07-21T13:43:35;10.45;;;5.15;;
71320;SDS011;59118;54.322;18.576;2022-07-21T13:46:05;9.38;;;5.00;;
71320;SDS011;59118;54.322;18.576;2022-07-21T13:48:32;10.07;;;5.00;;
71320;SDS011;59118;54.322;18.576;2022-07-21T13:51:07;9.70;;;4.73;;
71320;SDS011;59118;54.322;18.576;2022-07-21T13:53:35;11.80;;;5.32;;
71320;SDS011;59118;54.322;18.576;2022-07-21T13:56:03;11.73;;;4.85;;
71320;SDS011;59118;54.322;18.576;2022-07-21T13:58:30;8.57;;;4.53;;
71320;SDS011;59118;54.322;18.576;2022-07-21T14:00:59;10.05;;;4.95;;
71320;SDS011;59118;54.322;18.576;2022-07-21T14:03:26;9.77;;;4.90;;
71320;SDS011;59118;54.322;18.576;2022-07-21T14:05:53;9.90;;;5.30;;
71320;SDS011;59118;54.322;18.576;2022-07-21T14:08:20;8.02;;;5.05;;
71320;SDS011;59118;54.322;18.576;2022-07-21T14:10:48;13.57;;;5.25;;
71320;SDS011;59118;54.322;18.576;2022-07-21T14:13:15;10.93;;;5.18;;
71320;SDS011;59118;54.322;18.576;2022-07-21T14:15:42;10.43;;;5.27;;
71320;SDS011;59118;54.322;18.576;2022-07-21T14:18:08;10.98;;;5.18;;
71320;SDS011;59118;54.322;18.576;2022-07-21T14:20:35;9.93;;;5.15;;
71320;SDS011;59118;54.322;18.576;2022-07-21T14:23:01;8.30;;;4.43;;
71320;SDS011;59118;54.322;18.576;2022-07-21T14:25:28;11.63;;;5.38;;
71320;SDS011;59118;54.322;18.576;2022-07-21T14:27:56;11.60;;;5.10;;
71320;SDS011;59118;54.322;18.576;2022-07-21T14:30:24;11.88;;;5.03;;
71320;SDS011;59118;54.322;18.576;2022-07-21T14:32:53;9.50;;;4.80;;
71320;SDS011;59118;54.322;18.576;2022-07-21T14:35:20;8.55;;;5.07;;
71320;SDS011;59118;54.322;18.576;2022-07-21T14:37:47;10.82;;;5.00;;
71320;SDS011;59118;54.322;18.576;2022-07-21T14:40:14;11.07;;;5.10;;
71320;SDS011;59118;54.322;18.576;2022-07-21T14:42:42;8.65;;;4.88;;
71320;SDS011;59118;54.322;18.576;2022-07-21T14:45:09;8.10;;;4.93;;
71320;SDS011;59118;54.322;18.576;2022-07-21T14:47:49;12.63;;;5.13;;
71320;SDS011;59118;54.322;18.576;2022-07-21T14:50:18;9.82;;;5.25;;
71320;SDS011;59118;54.322;18.576;2022-07-21T14:52:52;9.50;;;4.87;;
71320;SDS011;59118;54.322;18.576;2022-07-21T14:55:19;11.20;;;5.38;;
71320;SDS011;59118;54.322;18.576;2022-07-21T14:57:52;9.77;;;5.00;;
71320;SDS011;59118;54.322;18.576;2022-07-21T15:00:19;9.73;;;4.80;;
71320;SDS011;59118;54.322;18.576;2022-07-21T15:02:46;10.68;;;5.15;;
71320;SDS011;59118;54.322;18.576;2022-07-21T15:05:13;12.17;;;5.23;;
71320;SDS011;59118;54.322;18.576;2022-07-21T15:08:00;10.55;;;5.10;;
71320;SDS011;59118;54.322;18.576;2022-07-21T15:10:26;10.40;;;4.95;;
71320;SDS011;59118;54.322;18.576;2022-07-21T15:12:53;10.93;;;5.15;;
71320;SDS011;59118;54.322;18.576;2022-07-21T15:15:19;9.57;;;4.95;;
71320;SDS011;59118;54.322;18.576;2022-07-21T15:17:46;9.70;;;5.13;;
71320;SDS011;59118;54.322;18.576;2022-07-21T15:20:13;10.82;;;5.03;;
71320;SDS011;59118;54.322;18.576;2022-07-21T15:22:40;8.77;;;5.30;;
71320;SDS011;59118;54.322;18.576;2022-07-21T15:25:09;7.72;;;4.60;;
71320;SDS011;59118;54.322;18.576;2022-07-21T15:27:38;9.57;;;4.80;;